Cavitt, Texas
Current Conditions -  °F | °C
As of 10:15 AM on Sunday 23 Nov 2014 (Local Time) from KGOP Reporting Station
Clear Clear  
Wind Chill: 64°   Ceiling: Unl
Heat Index: 64°   Visibility: 10mi
Dew Point: 50°   Wind: 10mph
Humidity: 59%   Direction: 240°WSW
Pressure: 29.62"   Gusts: NA
Location:  31.4557°N, 97.5706°W
Report Text: KGOP 231615Z AUTO 24009KT 10SM CLR 18/10 A2962 RMK AO2 PWINO
Loading
Personal Weather Stations






























Interactive Weather Map New forecast layout! Learn more

10-Day Weather Forecast

Advertisements
Track Severe Weather on mobile